Time;durP1;ratioP1;P1;durP2;ratioP2;P2;SDS_P1;SDS_P2;PMS_P1;PMS_P2;Temp;Humidity;BMP_temperature;BMP_pressure;BME280_temperature;BME280_humidity;BME280_pressure;Samples;Min_cycle;Max_cycle;Signal;HPM_P1;HPM_P2
2022/05/16 00:03:53;;;;;;;14.60;5.22;;;;;;;11.59;100.00;101702.31;10497699;28;20043;-67
2022/05/16 00:08:55;;;;;;;15.38;4.88;;;;;;;11.60;100.00;101687.44;10476826;28;20056;-71
2022/05/16 00:13:55;;;;;;;7.38;4.50;;;;;;;11.62;100.00;101674.25;10456713;28;20120;-71
2022/05/16 00:18:56;;;;;;;14.50;4.40;;;;;;;11.60;100.00;101670.06;10456484;28;20041;-71
2022/05/16 00:23:56;;;;;;;8.40;4.63;;;;;;;11.61;100.00;101666.22;10457704;28;20034;-71
2022/05/16 00:28:57;;;;;;;7.75;3.88;;;;;;;11.54;100.00;101654.47;10458285;28;20044;-71
2022/05/16 00:33:58;;;;;;;8.43;3.42;;;;;;;11.62;100.00;101660.47;10456056;28;20061;-71
2022/05/16 00:38:58;;;;;;;8.57;4.07;;;;;;;11.61;100.00;101653.25;10485950;28;20067;-71
2022/05/16 00:43:59;;;;;;;6.30;3.53;;;;;;;11.60;100.00;101643.31;10496757;28;20036;-71
2022/05/16 00:49:00;;;;;;;5.70;3.35;;;;;;;11.60;100.00;101646.06;10467346;28;20041;-72
2022/05/16 00:54:11;;;;;;;9.57;3.55;;;;;;;11.59;100.00;101643.56;10455231;28;20063;-71
2022/05/16 00:59:11;;;;;;;8.55;3.65;;;;;;;11.57;100.00;101649.31;10457745;28;20034;-71
2022/05/16 01:09:31;;;;;;;7.32;2.78;;;;;;;11.51;100.00;101626.31;10454710;28;20033;-72
2022/05/16 01:14:45;;;;;;;7.80;2.63;;;;;;;11.46;100.00;101619.84;10483194;28;20041;-72
2022/05/16 01:19:45;;;;;;;4.80;2.35;;;;;;;11.43;100.00;101612.91;10504759;28;20044;-73
2022/05/16 01:24:46;;;;;;;4.70;2.50;;;;;;;11.31;100.00;101612.91;10504249;28;20512;-72
2022/05/16 01:29:47;;;;;;;6.40;2.58;;;;;;;11.37;100.00;101626.78;10501579;28;20059;-73
2022/05/16 01:34:48;;;;;;;3.70;2.13;;;;;;;11.36;100.00;101608.59;10472420;28;20070;-73
2022/05/16 01:39:49;;;;;;;5.45;2.42;;;;;;;11.31;100.00;101618.41;10494848;28;20090;-73
2022/05/16 01:44:49;;;;;;;4.85;1.90;;;;;;;11.27;100.00;101619.97;10503740;28;20119;-73
2022/05/16 01:49:50;;;;;;;6.50;2.20;;;;;;;11.22;100.00;101607.97;10504454;28;20036;-71
2022/05/16 01:54:50;;;;;;;5.65;2.40;;;;;;;11.05;100.00;101580.31;10488442;28;20041;-72
2022/05/16 01:59:50;;;;;;;6.60;1.80;;;;;;;11.16;100.00;101595.16;10459270;28;20102;-72
2022/05/16 02:04:51;;;;;;;6.78;2.25;;;;;;;11.10;100.00;101595.06;10461794;28;20033;-72
2022/05/16 02:09:51;;;;;;;4.55;2.17;;;;;;;11.07;100.00;101606.56;10461037;28;20044;-72
2022/05/16 02:14:52;;;;;;;6.32;2.40;;;;;;;11.01;100.00;101596.50;10461121;28;20103;-66
2022/05/16 02:19:52;;;;;;;12.00;2.72;;;;;;;10.86;100.00;101554.81;10462960;28;20098;-71
2022/05/16 02:24:53;;;;;;;6.30;2.03;;;;;;;10.96;100.00;101581.78;10476432;28;20055;-73
2022/05/16 02:29:53;;;;;;;4.18;1.98;;;;;;;10.90;100.00;101578.88;10498461;28;20397;-72
2022/05/16 02:34:54;;;;;;;3.80;2.05;;;;;;;10.90;100.00;101564.28;10501997;28;20412;-73
2022/05/16 02:39:54;;;;;;;5.13;1.70;;;;;;;10.87;100.00;101567.50;10501061;28;20091;-73
2022/05/16 02:44:54;;;;;;;7.28;2.50;;;;;;;10.84;100.00;101563.31;10485162;28;20048;-72
2022/05/16 02:49:55;;;;;;;4.75;1.95;;;;;;;10.81;100.00;101554.69;10460879;28;20488;-72
2022/05/16 02:54:55;;;;;;;5.40;2.10;;;;;;;10.78;100.00;101541.41;10460334;28;20033;-72
2022/05/16 02:59:56;;;;;;;4.15;1.77;;;;;;;10.74;100.00;101541.03;10459158;28;20083;-73
2022/05/16 03:04:56;;;;;;;6.95;2.20;;;;;;;10.69;100.00;101529.91;10461271;28;20552;-70
2022/05/16 03:09:57;;;;;;;7.10;1.67;;;;;;;10.67;100.00;101519.13;10458691;28;20057;-73
2022/05/16 03:14:57;;;;;;;9.55;2.08;;;;;;;10.66;100.00;101531.22;10459032;28;20041;-72
2022/05/16 03:20:00;;;;;;;6.65;2.13;;;;;;;10.59;100.00;101511.22;10458775;28;20037;-72
2022/05/16 03:25:02;;;;;;;7.82;2.00;;;;;;;10.67;100.00;101527.38;10458964;28;20496;-73
2022/05/16 03:30:04;;;;;;;8.15;1.92;;;;;;;10.66;100.00;101517.44;10457902;28;20440;-73
2022/05/16 03:35:05;;;;;;;7.45;2.17;;;;;;;10.56;100.00;101497.91;10456160;28;20037;-73
2022/05/16 03:45:26;;;;;;;4.28;2.03;;;;;;;10.65;100.00;101514.94;10459147;28;20068;-73
2022/05/16 03:50:26;;;;;;;5.65;2.30;;;;;;;10.66;100.00;101519.38;10457371;28;20025;-73
2022/05/16 03:55:28;;;;;;;8.48;2.33;;;;;;;10.69;100.00;101513.38;10482649;28;20070;-73
2022/05/16 04:00:29;;;;;;;13.15;2.97;;;;;;;10.73;100.00;101503.56;10469906;28;20540;-73
2022/05/16 04:05:29;;;;;;;21.60;2.85;;;;;;;10.65;100.00;101477.22;10457385;28;20040;-73
2022/05/16 04:10:30;;;;;;;6.32;2.40;;;;;;;10.81;100.00;101499.59;10455837;28;20041;-73
2022/05/16 04:15:31;;;;;;;5.60;2.05;;;;;;;10.85;100.00;101495.28;10458383;28;20041;-71
2022/05/16 04:20:32;;;;;;;10.25;2.80;;;;;;;10.93;100.00;101483.88;10457902;28;20064;-73
2022/05/16 04:25:33;;;;;;;10.52;2.30;;;;;;;11.05;100.00;101497.66;10457127;28;20041;-72
2022/05/16 04:30:33;;;;;;;10.15;2.63;;;;;;;11.13;100.00;101477.16;10455942;28;20045;-72
2022/05/16 04:35:36;;;;;;;7.60;1.95;;;;;;;11.31;100.00;101490.78;10462552;28;20041;-73
2022/05/16 04:42:40;;;;;;;5.65;1.95;;;;;;;11.42;100.00;101489.06;10497976;28;20036;-73
2022/05/16 04:45:56;;;;;;;4.10;1.77;;;;;;;11.54;100.00;101489.03;10500040;28;20040;-73
2022/05/16 04:50:57;;;;;;;8.68;1.90;;;;;;;11.63;100.00;101493.06;10499694;28;20583;-73
2022/05/16 04:55:58;;;;;;;7.97;2.60;;;;;;;11.73;100.00;101467.59;10486997;28;20072;-73
2022/05/16 05:01:02;;;;;;;5.93;2.33;;;;;;;11.85;100.00;101474.72;10461353;28;20508;-74
2022/05/16 05:06:03;;;;;;;5.63;2.17;;;;;;;12.02;100.00;101479.47;10463408;28;20060;-72
2022/05/16 05:16:23;;;;;;;5.40;2.20;;;;;;;12.22;100.00;101482.56;10464306;28;20638;-72
2022/05/16 05:21:23;;;;;;;6.75;2.83;;;;;;;12.30;100.00;101482.16;10463117;28;20072;-72
2022/05/16 05:26:24;;;;;;;11.43;3.70;;;;;;;12.37;100.00;101489.44;10464317;28;20089;-71
2022/05/16 05:31:25;;;;;;;5.63;2.65;;;;;;;12.42;100.00;101495.03;10501694;28;20044;-71
2022/05/16 05:36:26;;;;;;;6.95;1.92;;;;;;;12.47;100.00;101504.22;10462524;28;20045;-71
2022/05/16 05:41:27;;;;;;;13.80;2.72;;;;;;;12.56;100.00;101504.63;10464078;28;20048;-70
2022/05/16 05:46:33;;;;;;;5.55;2.50;;;;;;;12.77;100.00;101493.91;10462690;28;20080;-72
2022/05/16 05:51:33;;;;;;;6.07;2.60;;;;;;;13.02;100.00;101496.19;10461069;28;20105;-71
2022/05/16 05:56:34;;;;;;;7.55;2.35;;;;;;;13.29;100.00;101479.69;10459932;28;20032;-71
2022/05/16 06:01:34;;;;;;;5.88;2.63;;;;;;;13.31;100.00;101474.75;10461275;28;20048;-72
2022/05/16 06:06:35;;;;;;;5.25;2.47;;;;;;;13.46;100.00;101482.41;10459286;28;20040;-71
2022/05/16 06:11:35;;;;;;;5.22;1.98;;;;;;;13.62;100.00;101473.19;10462854;28;20400;-72
2022/05/16 06:16:36;;;;;;;7.63;2.63;;;;;;;13.90;100.00;101474.84;10461395;28;20045;-72
2022/05/16 06:21:37;;;;;;;10.00;2.50;;;;;;;14.09;100.00;101468.91;10459127;28;20496;-72
2022/05/16 06:26:37;;;;;;;7.50;2.00;;;;;;;14.30;100.00;101459.69;10459627;28;20479;-72
2022/05/16 06:31:37;;;;;;;5.47;1.90;;;;;;;14.71;100.00;101461.94;10470479;28;20033;-71
2022/05/16 06:36:38;;;;;;;5.13;1.65;;;;;;;15.18;100.00;101451.94;10500826;28;20028;-69
2022/05/16 06:41:38;;;;;;;6.22;2.30;;;;;;;15.20;100.00;101452.50;10502287;28;20048;-71
2022/05/16 06:46:39;;;;;;;11.13;2.40;;;;;;;15.04;100.00;101446.88;10498617;28;20040;-72
2022/05/16 06:51:40;;;;;;;8.88;2.80;;;;;;;15.16;100.00;101456.91;10499687;28;20400;-71
2022/05/16 06:56:40;;;;;;;5.28;1.98;;;;;;;15.31;100.00;101451.41;10496710;28;20037;-74
2022/05/16 07:01:41;;;;;;;13.15;2.75;;;;;;;15.48;100.00;101454.81;10497967;28;20055;-73
2022/05/16 07:06:41;;;;;;;8.30;2.70;;;;;;;15.94;100.00;101452.13;10498875;28;20044;-71
2022/05/16 07:11:42;;;;;;;8.32;2.10;;;;;;;16.50;100.00;101447.69;10500495;28;20040;-71
2022/05/16 07:16:42;;;;;;;4.18;2.10;;;;;;;16.98;100.00;101420.31;10498249;28;20066;-72
2022/05/16 07:21:43;;;;;;;7.30;2.20;;;;;;;17.37;100.00;101414.03;10498965;28;20043;-72
2022/05/16 07:32:02;;;;;;;6.45;2.10;;;;;;;17.17;96.97;101319.53;10495554;28;20101;-72
2022/05/16 07:37:03;;;;;;;7.78;2.38;;;;;;;18.22;92.91;101418.44;10499131;28;20446;-71
2022/05/16 07:42:07;;;;;;;10.13;1.98;;;;;;;18.32;92.35;101434.25;10498275;28;20073;-72
2022/05/16 07:47:07;;;;;;;7.47;2.55;;;;;;;18.64;93.50;101428.03;10497843;28;20041;-72
2022/05/16 07:52:08;;;;;;;5.40;1.90;;;;;;;19.17;90.78;101437.53;10495229;28;20032;-71
2022/05/16 07:57:09;;;;;;;6.22;2.28;;;;;;;19.47;86.29;101414.78;10479136;28;20036;-71
2022/05/16 08:02:12;;;;;;;6.28;1.98;;;;;;;19.63;82.50;101389.41;10494835;28;20041;-71
2022/05/16 08:07:12;;;;;;;9.23;2.20;;;;;;;19.88;83.24;101405.78;10495389;28;20033;-71
2022/05/16 08:12:13;;;;;;;9.05;1.90;;;;;;;20.16;83.32;101394.69;10498435;28;20041;-71
2022/05/16 08:17:13;;;;;;;4.63;1.85;;;;;;;20.42;80.53;101397.84;10498607;28;20028;-72
2022/05/16 08:22:14;;;;;;;7.75;2.35;;;;;;;20.54;77.95;101383.38;10498399;28;20029;-71
2022/05/16 08:27:14;;;;;;;7.82;2.03;;;;;;;20.74;78.12;101380.19;10492086;28;20111;-72
2022/05/16 08:32:15;;;;;;;14.75;2.60;;;;;;;21.05;77.03;101373.97;10465778;28;20048;-73
2022/05/16 08:42:41;;;;;;;11.40;2.47;;;;;;;21.25;75.99;101383.03;10465007;28;20045;-73
2022/05/16 08:47:51;;;;;;;;;;;;;;;21.64;74.00;101387.22;10465132;28;20082;-73
2022/05/16 08:53:05;;;;;;;11.80;2.17;;;;;;;21.81;73.73;101384.56;10464533;28;19916;-76
2022/05/16 08:58:29;;;;;;;13.10;2.92;;;;;;;21.99;72.81;101370.66;10493659;28;20051;-74
2022/05/16 09:03:50;;;;;;;14.25;2.78;;;;;;;22.48;73.99;101369.63;10492118;28;20516;-73
2022/05/16 09:09:13;;;;;;;7.00;2.30;;;;;;;22.66;70.40;101356.50;10504911;28;20104;-78
2022/05/16 09:14:37;;;;;;;7.82;2.72;;;;;;;22.67;70.03;101357.34;10504418;28;20036;-74
2022/05/16 09:20:02;;;;;;;10.27;3.13;;;;;;;23.13;69.59;101362.47;10504729;28;20066;-75
2022/05/16 09:25:13;;;;;;;9.52;2.55;;;;;;;23.71;67.93;101359.47;10502799;28;20037;-74
2022/05/16 09:30:16;;;;;;;8.95;2.50;;;;;;;24.02;67.10;101356.50;10478275;28;20040;-74
2022/05/16 09:35:39;;;;;;;7.50;2.25;;;;;;;24.62;65.08;101360.31;10479311;28;20037;-74
2022/05/16 09:40:45;;;;;;;7.75;2.05;;;;;;;24.96;63.85;101358.47;10466693;28;20488;-75
2022/05/16 09:45:55;;;;;;;3.72;1.70;;;;;;;24.89;62.72;101361.00;10459737;28;20037;-74
2022/05/16 09:51:01;;;;;;;11.05;3.45;;;;;;;24.91;61.85;101378.38;10442474;28;20116;-71
2022/05/16 09:56:09;;;;;;;10.70;2.50;;;;;;;25.31;60.68;101380.81;10459726;28;20029;-73
2022/05/16 10:01:29;;;;;;;12.10;2.95;;;;;;;25.91;59.07;101371.03;10458789;28;20048;-73
2022/05/16 10:06:35;;;;;;;6.88;1.90;;;;;;;26.26;56.21;101365.00;10458929;28;20658;-72
2022/05/16 10:11:37;;;;;;;;;;;;;;;26.12;57.25;101365.31;10476007;28;20037;-72
2022/05/16 10:16:40;;;;;;;8.05;2.38;;;;;;;25.86;56.95;101356.28;10457450;28;20003;-73
2022/05/16 10:22:25;;;;;;;5.57;2.42;;;;;;;25.89;55.18;101350.81;10456712;28;20033;-73
2022/05/16 10:27:34;;;;;;;4.25;1.80;;;;;;;26.45;55.99;101344.69;10440957;28;20052;-75
2022/05/16 10:38:06;;;;;;;5.68;2.08;;;;;;;26.75;54.48;101352.97;10433551;28;1253072;-73
2022/05/16 10:43:21;;;;;;;7.60;2.20;;;;;;;26.68;53.14;101347.91;10458069;28;20037;-73
2022/05/16 10:48:36;;;;;;;4.55;2.17;;;;;;;26.88;53.30;101360.25;10461122;28;20122;-73
2022/05/16 10:53:47;;;;;;;7.47;2.63;;;;;;;27.31;51.88;101332.56;10483657;28;20288;-75
2022/05/16 10:59:16;;;;;;;6.85;2.60;;;;;;;27.82;49.70;101315.00;10486657;28;20082;-74
2022/05/16 11:05:16;;;;;;;5.90;2.05;;;;;;;27.85;49.74;101326.44;10460882;28;20044;-73
2022/05/16 11:10:22;;;;;;;10.50;2.67;;;;;;;27.70;50.94;101347.00;10420779;28;20071;-76
2022/05/16 11:15:26;;;;;;;11.38;2.65;;;;;;;27.80;50.15;101340.84;10473484;28;20037;-75
2022/05/16 11:20:28;;;;;;;10.68;2.40;;;;;;;28.10;49.56;101332.00;10499046;28;20062;-74
2022/05/16 11:25:32;;;;;;;7.18;2.17;;;;;;;27.87;48.29;101332.59;10496149;28;20044;-75
2022/05/16 11:30:33;;;;;;;12.85;2.40;;;;;;;27.80;50.11;101340.84;10498564;28;20563;-70
2022/05/16 11:35:34;;;;;;;9.27;2.30;;;;;;;27.95;49.45;101342.91;10498777;28;20040;-76
2022/05/16 11:40:39;;;;;;;11.48;2.00;;;;;;;28.56;47.87;101335.22;10498673;28;20500;-75
2022/05/16 11:45:48;;;;;;;7.50;2.10;;;;;;;28.60;45.49;101321.16;10482383;28;20044;-74
2022/05/16 11:50:54;;;;;;;8.30;2.72;;;;;;;27.90;48.17;101322.53;10499167;28;20041;-78
2022/05/16 12:01:33;;;;;;;7.90;2.13;;;;;;;27.50;49.39;101344.03;10454743;28;20131;-79
2022/05/16 12:06:36;;;;;;;8.27;1.98;;;;;;;27.02;50.14;101342.94;10455796;28;20149;-74
2022/05/16 12:12:11;;;;;;;10.43;2.30;;;;;;;26.30;49.85;101332.09;10468617;28;20040;-74
2022/05/16 12:17:14;;;;;;;19.70;3.22;;;;;;;25.76;53.66;101363.19;10465380;28;20078;-74
2022/05/16 12:22:24;;;;;;;36.75;5.43;;;;;;;25.40;56.65;101367.47;10496298;28;20487;-75
2022/05/16 12:27:27;;;;;;;11.10;2.50;;;;;;;25.13;61.61;101374.41;10444929;28;20048;-76
2022/05/16 12:32:30;;;;;;;3.92;2.10;;;;;;;24.68;61.28;101364.59;10456851;28;20045;-79
2022/05/16 12:37:31;;;;;;;4.65;1.83;;;;;;;24.44;63.74;101367.97;10457522;28;20512;-76
2022/05/16 12:42:50;;;;;;;10.65;2.83;;;;;;;24.33;68.10;101386.34;10489225;28;20072;-76
2022/05/16 12:47:57;;;;;;;8.75;2.60;;;;;;;24.19;68.46;101385.75;10497985;28;20040;-75
2022/05/16 12:53:22;;;;;;;10.85;2.90;;;;;;;24.12;71.20;101386.25;10488616;28;20041;-76
2022/05/16 12:58:38;;;;;;;6.85;2.00;;;;;;;24.15;71.35;101386.41;10455940;28;20041;-75
2022/05/16 13:03:46;;;;;;;24.60;3.85;;;;;;;24.11;71.02;101384.63;10455917;28;20044;-78
2022/05/16 13:08:50;;;;;;;8.40;3.28;;;;;;;24.27;69.12;101382.09;10437770;28;20095;-78
2022/05/16 13:14:14;;;;;;;8.45;2.97;;;;;;;24.70;68.50;101381.97;10458072;28;20033;-76
2022/05/16 13:19:16;;;;;;;8.40;3.42;;;;;;;25.09;68.47;101368.63;10463945;28;20047;-76
2022/05/16 13:24:18;;;;;;;6.93;3.03;;;;;;;25.50;66.37;101367.03;10459169;28;20060;-76
2022/05/16 13:29:21;;;;;;;10.82;3.30;;;;;;;25.83;64.92;101363.44;10491061;28;20048;-75
2022/05/16 13:34:35;;;;;;;9.20;3.38;;;;;;;25.70;64.65;101361.75;10471527;28;20060;-76
2022/05/16 13:39:39;;;;;;;8.43;3.20;;;;;;;25.89;66.70;101364.91;10501123;28;20044;-77
2022/05/16 13:44:42;;;;;;;9.13;2.92;;;;;;;25.54;64.68;101333.34;10502914;28;20036;-76
2022/05/16 13:49:42;;;;;;;9.68;3.33;;;;;;;25.56;65.39;101345.13;10502050;28;20044;-75
2022/05/16 13:54:43;;;;;;;9.07;3.33;;;;;;;25.39;66.99;101354.56;10484010;28;20036;-77
2022/05/16 13:59:43;;;;;;;7.82;2.70;;;;;;;25.52;69.04;101361.06;10497493;28;20118;-77
2022/05/16 14:04:55;;;;;;;12.02;3.50;;;;;;;25.69;63.95;101346.00;10499296;28;20090;-76
2022/05/16 14:10:04;;;;;;;10.57;3.20;;;;;;;25.53;61.77;101343.81;10500349;28;20033;-77
2022/05/16 14:15:07;;;;;;;11.50;3.10;;;;;;;25.06;63.71;101358.06;10495045;28;20051;-79
2022/05/16 14:20:16;;;;;;;11.25;3.10;;;;;;;24.84;64.79;101375.25;10458543;28;20051;-78
2022/05/16 14:25:55;;;;;;;9.98;3.25;;;;;;;24.51;65.49;101368.28;10482508;28;20033;-77
2022/05/16 14:31:06;;;;;;;10.68;3.25;;;;;;;23.97;66.42;101351.88;10344833;28;20044;-77
2022/05/16 14:36:08;;;;;;;8.85;2.67;;;;;;;24.21;65.61;101373.00;10473835;28;20316;-76
2022/05/16 14:41:13;;;;;;;8.48;2.70;;;;;;;24.22;65.70;101373.81;10442539;28;20049;-77
2022/05/16 14:51:35;;;;;;;4.15;2.00;;;;;;;24.23;67.69;101393.19;10499225;28;20047;-78
2022/05/16 14:56:37;;;;;;;4.68;2.65;;;;;;;24.42;67.04;101390.00;10494119;28;20500;-77
2022/05/16 15:06:58;;;;;;;10.38;3.95;;;;;;;25.42;66.38;101390.50;10501425;28;20055;-78
2022/05/16 15:12:00;;;;;;;6.72;3.83;;;;;;;25.52;65.44;101370.34;10499024;28;20025;-77
2022/05/16 15:17:00;;;;;;;9.95;4.57;;;;;;;25.38;65.34;101386.69;10499649;28;20520;-78
2022/05/16 15:22:03;;;;;;;9.07;3.45;;;;;;;25.24;66.86;101409.53;10481023;28;20068;-77
2022/05/16 15:27:07;;;;;;;6.70;3.30;;;;;;;24.95;66.81;101391.44;10454641;28;20037;-78
2022/05/16 15:32:08;;;;;;;12.63;5.05;;;;;;;24.74;67.35;101407.44;10455633;28;20063;-78
2022/05/16 15:37:11;;;;;;;6.35;3.97;;;;;;;24.45;69.01;101427.88;10458313;28;20048;-78
2022/05/16 15:42:12;;;;;;;10.55;4.28;;;;;;;24.15;68.04;101422.16;10457861;28;20327;-77
2022/05/16 15:47:36;;;;;;;10.25;3.53;;;;;;;23.42;70.75;101330.09;10457635;28;20029;-77
2022/05/16 15:52:36;;;;;;;14.20;4.78;;;;;;;24.15;68.95;101425.78;10455857;28;20102;-82
2022/05/16 15:57:37;;;;;;;13.13;5.55;;;;;;;24.23;70.11;101449.47;10455479;28;20063;-78
2022/05/16 16:02:41;;;;;;;10.65;5.93;;;;;;;24.05;70.65;101456.25;10455735;28;20044;-77
2022/05/16 16:13:01;;;;;;;13.85;9.30;;;;;;;22.73;85.35;101477.53;10456620;28;20116;-76
2022/05/16 16:18:01;;;;;;;15.68;10.30;;;;;;;22.41;91.45;101481.50;10456617;28;20424;-76
2022/05/16 16:23:02;;;;;;;21.25;15.68;;;;;;;21.81;100.00;101507.88;10467204;28;20036;-76
2022/05/16 16:28:06;;;;;;;22.75;16.38;;;;;;;21.46;100.00;101504.72;10496517;28;20036;-77
2022/05/16 16:33:07;;;;;;;22.60;16.65;;;;;;;20.99;100.00;101503.97;10459340;28;20363;-77
2022/05/16 16:38:08;;;;;;;20.10;15.10;;;;;;;20.57;100.00;101514.22;10453508;28;20060;-78
2022/05/16 16:43:28;;;;;;;18.15;13.70;;;;;;;20.31;100.00;101522.22;10454523;28;20037;-78
2022/05/16 16:48:29;;;;;;;22.70;13.23;;;;;;;20.10;100.00;101530.09;10458313;28;20037;-79
2022/05/16 16:58:49;;;;;;;20.27;12.13;;;;;;;20.01;100.00;101517.91;10464122;28;20499;-74
2022/05/16 17:03:49;;;;;;;19.65;10.93;;;;;;;19.92;100.00;101529.78;10463649;28;20029;-77
2022/05/16 17:08:50;;;;;;;16.77;11.27;;;;;;;19.72;100.00;101538.44;10461846;28;20044;-75
2022/05/16 17:13:53;;;;;;;16.55;10.07;;;;;;;19.60;100.00;101547.25;10463591;28;20029;-74
2022/05/16 17:18:53;;;;;;;20.05;11.73;;;;;;;19.24;100.00;101549.63;10462815;28;20047;-76
2022/05/16 17:23:54;;;;;;;23.33;12.95;;;;;;;19.06;100.00;101549.28;10501436;28;20036;-70
2022/05/16 17:28:54;;;;;;;22.15;14.38;;;;;;;18.93;100.00;101567.56;10501378;28;20053;-73
2022/05/16 17:33:55;;;;;;;24.98;13.65;;;;;;;18.79;100.00;101582.44;10501277;28;20044;-74
2022/05/16 17:38:56;;;;;;;24.98;15.52;;;;;;;18.44;100.00;101599.16;10501866;28;20455;-79
2022/05/16 17:43:56;;;;;;;34.33;18.83;;;;;;;18.09;100.00;101609.41;10501727;28;20450;-77
2022/05/16 17:48:57;;;;;;;54.15;26.90;;;;;;;17.58;100.00;101611.56;10503517;28;20082;-74
2022/05/16 17:54:02;;;;;;;51.22;30.85;;;;;;;16.98;100.00;101631.72;10503361;28;20044;-76
2022/05/16 17:59:03;;;;;;;54.27;31.53;;;;;;;16.70;100.00;101645.06;10487742;28;20033;-77
2022/05/16 18:04:06;;;;;;;54.47;30.67;;;;;;;16.37;100.00;101645.53;10467626;28;20033;-74
2022/05/16 18:09:08;;;;;;;60.97;33.10;;;;;;;16.13;100.00;101657.97;10460941;28;20041;-76
2022/05/16 18:14:08;;;;;;;67.45;34.88;;;;;;;15.41;100.00;101570.75;10458932;28;20044;-78
2022/05/16 18:19:09;;;;;;;89.53;44.35;;;;;;;15.96;100.00;101668.47;10461178;28;20036;-77
2022/05/16 18:24:10;;;;;;;77.47;40.88;;;;;;;15.88;100.00;101669.81;10461942;28;20029;-76
2022/05/16 18:29:12;;;;;;;80.53;42.47;;;;;;;15.71;100.00;101658.06;10459153;28;20040;-79
2022/05/16 18:34:13;;;;;;;83.75;43.00;;;;;;;15.83;100.00;101668.97;10458101;28;20060;-79
2022/05/16 18:39:14;;;;;;;92.13;44.05;;;;;;;15.74;100.00;101671.44;10459427;28;20045;-77
2022/05/16 18:54:53;;;;;;;109.45;49.85;;;;;;;15.74;100.00;101699.19;10481982;28;20037;-83
2022/05/16 18:59:54;;;;;;;117.82;53.35;;;;;;;15.73;100.00;101700.31;10496085;28;20036;-82
2022/05/16 19:04:54;;;;;;;119.78;54.17;;;;;;;15.76;100.00;101696.97;10497042;28;20033;-79
2022/05/16 19:09:56;;;;;;;111.07;54.92;;;;;;;15.85;100.00;101694.53;10496090;28;20377;-80
2022/05/16 19:14:57;;;;;;;111.47;55.40;;;;;;;15.87;100.00;101690.34;10498388;28;20045;-79
2022/05/16 19:19:58;;;;;;;120.63;58.53;;;;;;;15.87;100.00;101693.13;10497242;28;20037;-78
2022/05/16 19:24:58;;;;;;;126.55;60.47;;;;;;;15.90;100.00;101705.66;10496805;28;20119;-79
2022/05/16 19:35:18;;;;;;;134.80;58.55;;;;;;;15.87;100.00;101706.19;10512155;28;20037;-79
2022/05/16 19:40:18;;;;;;;110.20;52.53;;;;;;;15.79;100.00;101707.53;10498314;28;20064;-78
2022/05/16 19:45:19;;;;;;;94.50;45.85;;;;;;;15.71;100.00;101716.38;10499583;28;20037;-77
2022/05/16 19:50:20;;;;;;;75.82;37.58;;;;;;;15.63;100.00;101722.41;10498642;28;20044;-77
2022/05/16 19:55:20;;;;;;;74.45;36.10;;;;;;;15.54;100.00;101728.47;10478432;28;20056;-77
2022/05/16 20:00:21;;;;;;;66.20;35.65;;;;;;;15.49;100.00;101739.53;10495354;28;20033;-76
2022/05/16 20:05:22;;;;;;;70.28;35.35;;;;;;;15.29;100.00;101692.19;10501811;28;20078;-76
2022/05/16 20:10:22;;;;;;;61.67;33.33;;;;;;;15.46;100.00;101731.75;10494356;28;20050;-77
2022/05/16 20:15:23;;;;;;;70.38;36.67;;;;;;;15.45;100.00;101730.06;10479370;28;20064;-77
2022/05/16 20:20:24;;;;;;;91.35;39.15;;;;;;;15.45;100.00;101740.31;10497966;28;20406;-77
2022/05/16 20:25:30;;;;;;;81.88;37.90;;;;;;;15.45;100.00;101732.81;10503764;28;20041;-76
2022/05/16 20:30:33;;;;;;;79.15;37.70;;;;;;;15.39;100.00;101733.88;10502892;28;20039;-76
2022/05/16 20:35:35;;;;;;;73.53;36.30;;;;;;;15.27;100.00;101727.69;10502903;28;20064;-77
2022/05/16 20:40:39;;;;;;;67.55;36.15;;;;;;;15.35;100.00;101746.63;10503629;28;20047;-76
2022/05/16 20:45:39;;;;;;;62.45;31.45;;;;;;;15.32;100.00;101748.00;10492513;28;20063;-76
2022/05/16 20:50:40;;;;;;;63.85;31.02;;;;;;;15.31;100.00;101751.84;10502564;28;20036;-76
2022/05/16 20:55:40;;;;;;;48.33;26.75;;;;;;;15.23;100.00;101746.78;10504346;28;20035;-77
2022/05/16 21:00:43;;;;;;;48.55;24.83;;;;;;;15.27;100.00;101766.53;10501468;28;20032;-76
2022/05/16 21:05:43;;;;;;;38.00;21.77;;;;;;;15.07;100.00;101740.28;10501601;28;20044;-77
2022/05/16 21:10:44;;;;;;;35.38;19.58;;;;;;;15.25;100.00;101775.09;10502268;28;20370;-76
2022/05/16 21:15:44;;;;;;;35.20;20.63;;;;;;;15.25;100.00;101782.59;10504654;28;20036;-76
2022/05/16 21:20:45;;;;;;;43.08;19.65;;;;;;;15.16;100.00;101762.00;10501251;28;20032;-76
2022/05/16 21:25:46;;;;;;;31.42;17.77;;;;;;;15.17;100.00;101766.44;10465418;28;20040;-76
2022/05/16 21:30:47;;;;;;;27.67;17.98;;;;;;;15.24;100.00;101787.31;10501739;28;20097;-76
2022/05/16 21:35:47;;;;;;;34.97;17.48;;;;;;;15.20;100.00;101790.88;10503404;28;20047;-75
2022/05/16 21:40:48;;;;;;;31.92;17.48;;;;;;;15.09;100.00;101784.41;10503835;28;20496;-76
2022/05/16 21:45:49;;;;;;;37.67;17.30;;;;;;;15.08;100.00;101775.22;10505141;28;20053;-77
2022/05/16 21:50:50;;;;;;;31.17;17.17;;;;;;;15.13;100.00;101789.16;10485692;28;20024;-77
2022/05/16 21:55:50;;;;;;;35.85;19.45;;;;;;;15.12;100.00;101793.03;10502239;28;20040;-77
2022/05/16 22:00:51;;;;;;;28.85;17.15;;;;;;;15.11;100.00;101794.13;10498899;28;20439;-76
2022/05/16 22:05:52;;;;;;;40.60;18.35;;;;;;;15.10;100.00;101809.09;10493704;28;20435;-77
2022/05/16 22:10:55;;;;;;;38.72;19.98;;;;;;;15.12;100.00;101798.56;10518541;28;20040;-78
2022/05/16 22:15:56;;;;;;;32.15;18.25;;;;;;;15.10;100.00;101806.31;10502691;28;20058;-77
2022/05/16 22:20:56;;;;;;;34.38;16.98;;;;;;;15.12;100.00;101809.66;10502073;28;20044;-78
2022/05/16 22:25:57;;;;;;;31.48;16.70;;;;;;;15.13;100.00;101810.50;10502020;28;20036;-79
2022/05/16 22:30:57;;;;;;;38.38;17.75;;;;;;;15.08;100.00;101808.50;10500808;28;20040;-79
2022/05/16 22:35:58;;;;;;;34.45;17.70;;;;;;;15.09;100.00;101821.28;10483176;28;20047;-79
2022/05/16 22:40:58;;;;;;;31.98;15.95;;;;;;;15.01;100.00;101805.13;10500239;28;20037;-78
2022/05/16 22:45:59;;;;;;;31.27;17.90;;;;;;;15.04;100.00;101815.69;10501405;28;20144;-80
2022/05/16 22:50:59;;;;;;;40.15;16.95;;;;;;;14.99;100.00;101810.09;10499587;28;20029;-79
2022/05/16 22:56:01;;;;;;;38.83;17.60;;;;;;;14.97;100.00;101822.56;10481153;28;20048;-74
2022/05/16 23:01:02;;;;;;;34.58;16.23;;;;;;;14.97;100.00;101834.47;10481646;28;20050;-80
2022/05/16 23:06:09;;;;;;;31.35;16.05;;;;;;;14.92;100.00;101829.72;10487184;28;20053;-79
2022/05/16 23:11:09;;;;;;;36.20;16.98;;;;;;;14.83;100.00;101828.50;10458260;28;20033;-80
2022/05/16 23:16:10;;;;;;;37.53;16.95;;;;;;;14.88;100.00;101836.03;10457286;28;20052;-80
2022/05/16 23:21:10;;;;;;;30.88;14.90;;;;;;;14.87;100.00;101831.59;10458254;28;20036;-79
2022/05/16 23:26:11;;;;;;;31.13;15.27;;;;;;;14.79;100.00;101810.69;10472895;28;20033;-79
2022/05/16 23:31:11;;;;;;;29.75;13.75;;;;;;;14.90;100.00;101842.16;10477138;28;20047;-80
2022/05/16 23:36:14;;;;;;;33.17;15.48;;;;;;;14.90;100.00;101828.28;10496872;28;20043;-78
2022/05/16 23:41:15;;;;;;;27.48;15.25;;;;;;;14.90;100.00;101833.81;10499055;28;20071;-79
2022/05/16 23:46:16;;;;;;;31.50;16.38;;;;;;;14.85;100.00;101836.56;10480540;28;20025;-79
2022/05/16 23:51:17;;;;;;;36.42;16.45;;;;;;;14.75;100.00;101845.59;10480992;28;20040;-78
2022/05/16 23:56:18;;;;;;;37.03;16.20;;;;;;;14.61;100.00;101836.81;10460431;28;20029;-79
